createdAt,value
2018-11-26T00:00:36.701Z,59.30
2018-11-26T00:01:36.766Z,59.50
2018-11-26T00:03:36.685Z,57.70
2018-11-26T00:04:36.691Z,55.90
2018-11-26T00:05:36.699Z,55.90
2018-11-26T00:06:36.701Z,57.90
2018-11-26T00:07:36.699Z,60.00
2018-11-26T00:08:36.719Z,57.70
2018-11-26T00:09:36.707Z,60.50
2018-11-26T00:11:36.721Z,51.70
2018-11-26T00:12:36.718Z,55.80
2018-11-26T00:13:36.730Z,56.70
2018-11-26T00:14:36.737Z,56.20
2018-11-26T00:15:36.746Z,51.50
2018-11-26T00:16:36.732Z,62.30
2018-11-26T00:17:36.727Z,55.90
2018-11-26T00:18:36.743Z,59.80
2018-11-26T00:19:36.743Z,57.30
2018-11-26T00:20:36.749Z,61.20
2018-11-26T00:21:36.751Z,54.00
2018-11-26T00:22:36.756Z,55.10
2018-11-26T00:24:36.757Z,53.30
2018-11-26T00:25:36.818Z,54.00
2018-11-26T00:26:36.773Z,55.20
2018-11-26T00:27:36.772Z,55.00
2018-11-26T00:28:36.772Z,57.40
2018-11-26T00:30:36.785Z,52.80
2018-11-26T00:31:36.788Z,55.70
2018-11-26T00:32:36.791Z,52.70
2018-11-26T00:33:36.793Z,51.80
2018-11-26T00:34:36.800Z,56.00
2018-11-26T00:35:36.818Z,53.60
2018-11-26T00:36:36.806Z,52.70
2018-11-26T00:37:36.810Z,50.70
2018-11-26T00:38:36.935Z,54.10
2018-11-26T00:39:36.813Z,56.10
2018-11-26T00:40:36.814Z,55.70
2018-11-26T00:41:36.821Z,52.80
2018-11-26T00:42:36.828Z,54.40
2018-11-26T00:43:36.833Z,48.90
2018-11-26T00:44:36.881Z,52.60
2018-11-26T00:45:36.943Z,55.00
2018-11-26T00:46:36.840Z,53.10
2018-11-26T00:47:36.851Z,60.00
2018-11-26T00:48:36.849Z,54.00
2018-11-26T00:49:36.849Z,54.30
2018-11-26T00:50:36.856Z,55.00
2018-11-26T00:51:36.851Z,52.10
2018-11-26T00:52:36.890Z,56.60
2018-11-26T00:53:36.864Z,50.00
2018-11-26T00:54:36.879Z,48.70
2018-11-26T00:55:36.888Z,51.60
2018-11-26T00:56:36.880Z,50.10
2018-11-26T00:57:36.890Z,51.50
2018-11-26T00:58:36.881Z,49.40
2018-11-26T00:59:36.881Z,49.60
2018-11-26T01:00:36.893Z,51.90
2018-11-26T01:01:36.899Z,48.90
2018-11-26T01:02:36.913Z,53.40
2018-11-26T01:03:36.903Z,54.70
2018-11-26T01:04:36.905Z,49.50
2018-11-26T01:05:36.908Z,49.00
2018-11-26T01:06:36.916Z,53.90
2018-11-26T01:07:36.912Z,53.80
2018-11-26T01:08:36.916Z,50.40
2018-11-26T01:09:36.923Z,47.70
2018-11-26T01:10:36.932Z,53.40
2018-11-26T01:11:36.929Z,47.50
2018-11-26T01:12:36.934Z,45.70
2018-11-26T01:13:36.940Z,47.50
2018-11-26T01:14:36.940Z,48.90
2018-11-26T01:15:36.945Z,46.00
2018-11-26T01:16:36.937Z,48.60
2018-11-26T01:17:36.955Z,48.30
2018-11-26T01:18:36.951Z,47.90
2018-11-26T01:19:36.956Z,50.20
2018-11-26T01:20:36.957Z,49.30
2018-11-26T01:21:36.966Z,51.90
2018-11-26T01:22:36.972Z,49.60
2018-11-26T01:23:36.974Z,48.40
2018-11-26T01:24:36.987Z,44.90
2018-11-26T01:25:36.997Z,49.80
2018-11-26T01:26:37.005Z,49.30
2018-11-26T01:27:36.989Z,50.50
2018-11-26T01:28:37.008Z,48.90
2018-11-26T01:29:36.993Z,47.70
2018-11-26T01:30:36.999Z,50.40
2018-11-26T01:31:37.004Z,48.90
2018-11-26T01:32:36.999Z,49.70
2018-11-26T01:33:37.052Z,48.90
2018-11-26T01:34:37.015Z,50.20
2018-11-26T01:35:37.020Z,47.20
2018-11-26T01:36:37.028Z,48.50
2018-11-26T01:37:37.042Z,50.90
2018-11-26T01:38:37.042Z,53.60
2018-11-26T01:39:37.030Z,47.60
2018-11-26T01:40:37.035Z,47.50
2018-11-26T01:41:37.044Z,44.70
2018-11-26T01:42:37.046Z,50.20
2018-11-26T01:43:37.036Z,45.10
2018-11-26T01:44:37.037Z,46.80
2018-11-26T01:45:37.042Z,46.70
2018-11-26T01:46:37.047Z,50.70
2018-11-26T01:47:37.052Z,48.00
2018-11-26T01:48:37.054Z,47.90
2018-11-26T01:49:37.061Z,47.90
2018-11-26T01:50:37.073Z,45.70
2018-11-26T01:51:37.073Z,45.70
2018-11-26T01:52:37.078Z,43.60
2018-11-26T01:53:37.083Z,47.70
2018-11-26T01:54:37.105Z,48.10
2018-11-26T01:55:37.097Z,48.10
2018-11-26T01:56:37.111Z,44.90
2018-11-26T01:57:37.095Z,45.90
2018-11-26T01:58:37.092Z,46.80
2018-11-26T01:59:37.103Z,44.10
2018-11-26T02:00:37.105Z,47.40
2018-11-26T02:01:37.103Z,49.30
2018-11-26T02:02:37.111Z,45.30
2018-11-26T02:03:37.116Z,46.70
2018-11-26T02:04:37.124Z,44.10
2018-11-26T02:05:37.132Z,45.90
2018-11-26T02:06:37.137Z,47.40
2018-11-26T02:07:37.125Z,44.40
2018-11-26T02:08:37.136Z,46.10
2018-11-26T02:09:37.137Z,47.20
2018-11-26T02:10:37.147Z,44.80
2018-11-26T02:11:37.144Z,44.00
2018-11-26T02:12:37.145Z,45.50
2018-11-26T02:13:37.165Z,45.20
2018-11-26T02:14:37.150Z,44.60
2018-11-26T02:15:37.147Z,42.70
2018-11-26T02:16:37.157Z,45.40
2018-11-26T02:17:37.161Z,48.20
2018-11-26T02:18:37.166Z,48.30
2018-11-26T02:19:37.164Z,41.00
2018-11-26T02:20:37.196Z,44.10
2018-11-26T02:21:37.183Z,41.50
2018-11-26T02:22:37.220Z,46.10
2018-11-26T02:23:37.184Z,44.90
2018-11-26T02:24:37.207Z,42.40
2018-11-26T02:25:37.195Z,45.40
2018-11-26T02:26:37.211Z,43.70
2018-11-26T02:27:37.196Z,42.90
2018-11-26T02:28:37.198Z,41.00
2018-11-26T02:29:37.201Z,43.00
2018-11-26T02:30:37.207Z,42.00
2018-11-26T02:31:37.213Z,42.20
2018-11-26T02:32:37.218Z,44.00
2018-11-26T02:33:37.219Z,42.50
2018-11-26T02:34:37.226Z,44.10
2018-11-26T02:35:37.231Z,42.80
2018-11-26T02:36:37.244Z,43.10
2018-11-26T02:37:37.234Z,42.00
2018-11-26T02:38:37.246Z,44.20
2018-11-26T02:39:37.240Z,43.80
2018-11-26T02:40:37.243Z,41.70
2018-11-26T02:41:37.247Z,41.50
2018-11-26T02:42:37.248Z,42.50
2018-11-26T02:43:37.255Z,42.70
2018-11-26T02:44:37.260Z,43.10
2018-11-26T02:45:37.279Z,44.50
2018-11-26T02:46:37.264Z,47.50
2018-11-26T02:47:37.263Z,41.30
2018-11-26T02:48:37.274Z,44.50
2018-11-26T02:49:37.274Z,41.20
2018-11-26T02:50:37.301Z,43.20
2018-11-26T02:51:37.285Z,46.00
2018-11-26T02:52:37.304Z,43.00
2018-11-26T02:53:37.307Z,43.80
2018-11-26T02:54:37.304Z,42.50
2018-11-26T02:55:37.315Z,45.10
2018-11-26T02:56:37.303Z,43.20
2018-11-26T02:57:37.312Z,42.00
2018-11-26T02:58:37.307Z,43.70
2018-11-26T02:59:37.308Z,41.20
2018-11-26T03:00:37.315Z,45.00
2018-11-26T03:01:37.321Z,45.90
2018-11-26T03:02:37.319Z,40.90
2018-11-26T03:03:37.323Z,44.20
2018-11-26T03:04:37.335Z,42.60
2018-11-26T03:05:37.336Z,43.80
2018-11-26T03:06:37.340Z,48.20
2018-11-26T03:07:37.343Z,43.30
2018-11-26T03:08:37.343Z,42.10
2018-11-26T03:09:37.353Z,46.00
2018-11-26T03:10:37.350Z,41.40
2018-11-26T03:11:37.361Z,43.00
2018-11-26T03:12:37.361Z,42.00
2018-11-26T03:13:37.358Z,42.60
2018-11-26T03:14:37.360Z,46.80
2018-11-26T03:15:37.368Z,42.10
2018-11-26T03:16:37.373Z,45.60
2018-11-26T03:17:37.390Z,46.60
2018-11-26T03:18:37.379Z,43.10
2018-11-26T03:19:37.382Z,44.50
2018-11-26T03:20:37.388Z,47.90
2018-11-26T03:21:37.390Z,41.20
2018-11-26T03:22:37.400Z,46.60
2018-11-26T03:23:37.398Z,42.90
2018-11-26T03:24:37.403Z,45.20
2018-11-26T03:25:37.415Z,44.80
2018-11-26T03:26:37.416Z,39.80
2018-11-26T03:27:37.416Z,42.20
2018-11-26T03:28:37.417Z,45.80
2018-11-26T03:29:37.426Z,45.00
2018-11-26T03:30:37.428Z,45.00
2018-11-26T03:31:37.433Z,46.00
2018-11-26T03:32:37.434Z,49.60
2018-11-26T03:33:37.433Z,42.60
2018-11-26T03:34:37.443Z,41.80
2018-11-26T03:35:37.460Z,46.50
2018-11-26T03:36:37.457Z,46.90
2018-11-26T03:37:37.454Z,46.10
2018-11-26T03:38:37.455Z,43.90
2018-11-26T03:39:37.461Z,44.70
2018-11-26T03:40:37.461Z,42.70
2018-11-26T03:41:37.468Z,43.70
2018-11-26T03:42:37.470Z,45.40
2018-11-26T03:43:37.477Z,47.10
2018-11-26T03:44:37.469Z,40.90
2018-11-26T03:45:37.478Z,44.30
2018-11-26T03:46:37.485Z,45.50
2018-11-26T03:47:37.488Z,47.00
2018-11-26T03:48:37.496Z,41.10
2018-11-26T03:49:37.499Z,44.50
2018-11-26T03:50:37.498Z,42.90
2018-11-26T03:51:37.507Z,45.70
2018-11-26T03:52:37.508Z,44.30
2018-11-26T03:53:37.506Z,43.50
2018-11-26T03:54:37.530Z,43.50
2018-11-26T03:55:37.524Z,41.40
2018-11-26T03:56:37.541Z,45.90
2018-11-26T03:57:37.542Z,45.90
2018-11-26T03:58:37.541Z,45.50
2018-11-26T03:59:37.550Z,44.30
2018-11-26T04:00:37.553Z,45.90
2018-11-26T04:01:37.560Z,46.40
2018-11-26T04:02:37.540Z,46.30
2018-11-26T04:03:37.539Z,48.20
2018-11-26T04:04:37.543Z,46.90
2018-11-26T04:05:37.555Z,45.00
2018-11-26T04:06:37.672Z,44.20
2018-11-26T04:07:37.564Z,44.60
2018-11-26T04:08:37.569Z,44.10
2018-11-26T04:09:37.568Z,47.50
2018-11-26T04:10:37.576Z,42.70
2018-11-26T04:11:37.580Z,43.40
2018-11-26T04:12:37.592Z,43.70
2018-11-26T04:13:37.596Z,52.10
2018-11-26T04:14:37.601Z,44.70
2018-11-26T04:15:37.601Z,47.50
2018-11-26T04:16:37.590Z,52.50
2018-11-26T04:17:37.605Z,45.40
2018-11-26T04:18:37.606Z,47.10
2018-11-26T04:19:37.605Z,46.50
2018-11-26T04:20:37.613Z,47.70
2018-11-26T04:21:37.617Z,45.60
2018-11-26T04:22:37.627Z,43.30
2018-11-26T04:23:37.630Z,44.60
2018-11-26T04:24:37.641Z,52.40
2018-11-26T04:25:37.677Z,44.80
2018-11-26T04:26:37.636Z,48.00
2018-11-26T04:27:37.645Z,49.10
2018-11-26T04:28:37.654Z,46.20
2018-11-26T04:29:37.660Z,42.60
2018-11-26T04:30:37.675Z,45.20
2018-11-26T04:31:37.653Z,46.00
2018-11-26T04:32:37.652Z,48.20
2018-11-26T04:33:37.660Z,50.30
2018-11-26T04:34:37.661Z,45.80
2018-11-26T04:35:37.667Z,47.30
2018-11-26T04:36:37.671Z,43.20
2018-11-26T04:37:37.675Z,44.00
2018-11-26T04:38:37.681Z,46.40
2018-11-26T04:39:37.689Z,46.60
2018-11-26T04:40:37.691Z,48.00
2018-11-26T04:41:37.697Z,45.50
2018-11-26T04:42:37.708Z,47.10
2018-11-26T04:43:37.714Z,44.30
2018-11-26T04:44:37.720Z,47.40
2018-11-26T04:45:37.721Z,51.70
2018-11-26T04:46:37.720Z,44.60
2018-11-26T04:47:37.733Z,47.80
2018-11-26T04:48:37.721Z,49.20
2018-11-26T04:49:37.726Z,48.70
2018-11-26T04:50:37.729Z,48.50
2018-11-26T04:51:37.734Z,42.70
2018-11-26T04:52:37.740Z,44.50
2018-11-26T04:53:37.751Z,44.90
2018-11-26T04:54:37.751Z,47.30
2018-11-26T04:55:37.747Z,43.30
2018-11-26T04:56:37.744Z,46.20
2018-11-26T04:57:42.149Z,44.10
2018-11-26T04:58:37.764Z,45.90
2018-11-26T04:59:37.771Z,45.80
2018-11-26T05:00:37.777Z,45.60
2018-11-26T05:01:37.782Z,44.90
2018-11-26T05:02:37.795Z,44.80
2018-11-26T05:03:37.788Z,44.20
2018-11-26T05:04:37.785Z,43.80
2018-11-26T05:05:37.792Z,44.60
2018-11-26T05:06:37.804Z,45.70
2018-11-26T05:07:37.799Z,43.60
2018-11-26T05:08:37.808Z,45.00
2018-11-26T05:09:37.806Z,47.50
2018-11-26T05:10:37.814Z,44.10
2018-11-26T05:11:37.819Z,47.50
2018-11-26T05:12:37.825Z,40.10
2018-11-26T05:13:37.821Z,43.40
2018-11-26T05:14:37.819Z,44.90
2018-11-26T05:15:37.834Z,45.70
2018-11-26T05:16:37.834Z,43.20
2018-11-26T05:17:37.839Z,47.60
2018-11-26T05:18:37.874Z,43.10
2018-11-26T05:19:37.846Z,40.20
2018-11-26T05:20:37.852Z,41.80
2018-11-26T05:21:37.855Z,42.30
2018-11-26T05:22:37.858Z,45.70
2018-11-26T05:23:37.860Z,40.10
2018-11-26T05:24:37.868Z,41.10
2018-11-26T05:25:37.878Z,40.30
2018-11-26T05:26:37.870Z,43.60
2018-11-26T05:27:37.876Z,41.20
2018-11-26T05:28:37.883Z,41.90
2018-11-26T05:29:37.901Z,45.80
2018-11-26T05:30:37.890Z,47.90
2018-11-26T05:31:37.895Z,46.00
2018-11-26T05:32:37.911Z,43.10
2018-11-26T05:33:37.901Z,49.80
2018-11-26T05:34:37.903Z,44.10
2018-11-26T05:35:37.908Z,41.00
2018-11-26T05:36:37.914Z,41.70
2018-11-26T05:37:37.915Z,46.00
2018-11-26T05:38:37.919Z,43.50
2018-11-26T05:39:37.922Z,42.40
2018-11-26T05:40:37.929Z,42.70
2018-11-26T05:41:37.929Z,43.60
2018-11-26T05:42:37.933Z,41.00
2018-11-26T05:43:37.934Z,41.40
2018-11-26T05:44:37.938Z,42.40
2018-11-26T05:45:37.950Z,48.40
2018-11-26T05:46:37.956Z,40.70
2018-11-26T05:47:37.953Z,43.70
2018-11-26T05:48:37.957Z,43.30
2018-11-26T05:49:37.967Z,42.50
2018-11-26T05:50:37.965Z,42.50
2018-11-26T05:51:37.970Z,42.50
2018-11-26T05:52:37.976Z,44.10
2018-11-26T05:53:37.986Z,41.20
2018-11-26T05:54:37.989Z,42.20
2018-11-26T05:55:37.999Z,38.60
2018-11-26T05:56:37.994Z,41.00
2018-11-26T05:57:37.998Z,43.70
2018-11-26T05:58:38.007Z,42.40
2018-11-26T05:59:37.999Z,42.40
2018-11-26T06:00:38.007Z,44.00
2018-11-26T06:01:38.011Z,41.80
2018-11-26T06:02:38.135Z,46.40
2018-11-26T06:03:38.015Z,40.40
2018-11-26T06:04:38.023Z,43.60
2018-11-26T06:05:38.026Z,43.00
2018-11-26T06:06:38.027Z,44.50
2018-11-26T06:07:38.033Z,44.00
2018-11-26T06:08:38.043Z,43.10
2018-11-26T06:09:38.043Z,41.80
2018-11-26T06:10:38.036Z,42.70
2018-11-26T06:11:38.041Z,42.20
2018-11-26T06:12:38.049Z,44.40
2018-11-26T06:13:38.050Z,45.70
2018-11-26T06:14:38.066Z,46.10
2018-11-26T06:15:38.059Z,41.40
2018-11-26T06:16:38.084Z,41.60
2018-11-26T06:17:38.068Z,42.60
2018-11-26T06:18:38.081Z,42.40
2018-11-26T06:19:38.079Z,48.80
2018-11-26T06:20:38.090Z,44.30
2018-11-26T06:21:38.085Z,44.70
2018-11-26T06:22:38.093Z,42.80
2018-11-26T06:23:38.102Z,42.60
2018-11-26T06:24:38.098Z,43.70
2018-11-26T06:25:38.107Z,46.10
2018-11-26T06:26:38.107Z,42.20
2018-11-26T06:27:38.110Z,44.90
2018-11-26T06:28:38.117Z,41.40
2018-11-26T06:29:38.120Z,43.60
2018-11-26T06:30:38.114Z,44.90
2018-11-26T06:31:38.120Z,45.30
2018-11-26T06:32:38.125Z,45.60
2018-11-26T06:33:38.135Z,47.80
2018-11-26T06:34:42.301Z,45.20
2018-11-26T06:35:38.139Z,52.90
2018-11-26T06:36:38.156Z,44.70
2018-11-26T06:37:38.153Z,46.80
2018-11-26T06:38:38.152Z,41.40
2018-11-26T06:39:38.164Z,49.40
2018-11-26T06:40:38.164Z,46.50
2018-11-26T06:41:38.171Z,46.20
2018-11-26T06:42:38.165Z,46.80
2018-11-26T06:43:38.171Z,45.60
2018-11-26T06:44:38.176Z,41.80
2018-11-26T06:45:38.182Z,43.80
2018-11-26T06:46:38.186Z,47.40
2018-11-26T06:47:38.191Z,44.50
2018-11-26T06:48:38.192Z,44.70
2018-11-26T06:49:38.202Z,42.80
2018-11-26T06:50:38.208Z,45.00
2018-11-26T06:51:38.257Z,47.50
2018-11-26T06:52:38.212Z,43.60
2018-11-26T06:53:38.216Z,42.60
2018-11-26T06:54:38.221Z,40.60
2018-11-26T06:55:38.216Z,44.20
2018-11-26T06:56:38.230Z,42.20
2018-11-26T06:57:38.228Z,44.90
2018-11-26T06:58:38.235Z,41.80
2018-11-26T06:59:38.235Z,46.60
2018-11-26T07:00:38.244Z,43.80
2018-11-26T07:01:38.248Z,45.20
2018-11-26T07:02:38.248Z,44.00
2018-11-26T07:03:38.378Z,43.40
2018-11-26T07:04:38.255Z,48.90
2018-11-26T07:05:38.259Z,44.80
2018-11-26T07:06:38.266Z,45.70
2018-11-26T07:07:38.274Z,47.20
2018-11-26T07:08:38.269Z,46.30
2018-11-26T07:09:38.276Z,46.50
2018-11-26T07:10:38.288Z,46.10
2018-11-26T07:11:38.279Z,47.80
2018-11-26T07:12:38.292Z,48.70
2018-11-26T07:13:38.294Z,48.90
2018-11-26T07:14:38.300Z,50.20
2018-11-26T07:15:38.314Z,50.90
2018-11-26T07:16:38.332Z,50.80
2018-11-26T07:17:38.309Z,50.40
2018-11-26T07:18:38.315Z,53.30
2018-11-26T07:19:38.314Z,59.20
2018-11-26T07:20:38.319Z,58.90
2018-11-26T07:21:38.322Z,55.50
2018-11-26T07:22:38.329Z,56.70
2018-11-26T07:23:38.341Z,57.80
2018-11-26T07:24:38.333Z,55.30
2018-11-26T07:25:38.341Z,60.00
2018-11-26T07:26:38.359Z,62.70
2018-11-26T07:27:38.345Z,59.80
2018-11-26T07:28:38.349Z,56.60
2018-11-26T07:29:38.358Z,60.70
2018-11-26T07:30:38.376Z,58.70
2018-11-26T07:31:38.373Z,63.90
2018-11-26T07:32:38.363Z,60.50
2018-11-26T07:33:38.361Z,58.10
2018-11-26T07:34:38.372Z,64.10
2018-11-26T07:35:38.376Z,59.20
2018-11-26T07:36:38.374Z,60.50
2018-11-26T07:37:38.381Z,61.60
2018-11-26T07:38:38.387Z,63.30
2018-11-26T07:39:38.389Z,64.30
2018-11-26T07:40:38.398Z,63.90
2018-11-26T07:41:38.408Z,61.70
2018-11-26T07:42:38.409Z,64.10
2018-11-26T07:43:38.415Z,63.00
2018-11-26T07:44:38.443Z,63.10
2018-11-26T07:45:38.429Z,61.40
2018-11-26T07:46:38.437Z,59.00
2018-11-26T07:47:38.435Z,65.20
2018-11-26T07:48:38.454Z,65.70
2018-11-26T07:49:38.430Z,58.80
2018-11-26T07:50:38.483Z,59.00
2018-11-26T07:51:38.452Z,66.70
2018-11-26T07:52:38.441Z,63.80
2018-11-26T07:53:38.518Z,65.60
2018-11-26T07:54:38.455Z,63.70
2018-11-26T07:55:38.462Z,62.30
2018-11-26T07:56:38.454Z,62.20
2018-11-26T07:57:38.480Z,54.90
2018-11-26T07:58:38.498Z,65.80
2018-11-26T07:59:38.474Z,59.50
2018-11-26T08:00:38.477Z,57.20
2018-11-26T08:01:38.483Z,70.60
2018-11-26T08:02:38.493Z,64.60
2018-11-26T08:03:38.486Z,67.30
2018-11-26T08:04:38.496Z,64.10
2018-11-26T08:05:38.490Z,71.50
2018-11-26T08:06:38.509Z,76.20
2018-11-26T08:07:38.501Z,68.90
2018-11-26T08:08:38.504Z,67.90
2018-11-26T08:09:38.506Z,72.40
2018-11-26T08:10:38.510Z,72.20
2018-11-26T08:11:38.515Z,71.00
2018-11-26T08:12:38.520Z,66.40
2018-11-26T08:13:38.526Z,69.90
2018-11-26T08:15:38.536Z,71.90
2018-11-26T08:16:38.574Z,70.40
2018-11-26T08:17:38.561Z,78.90
2018-11-26T08:18:38.557Z,75.00
2018-11-26T08:19:38.565Z,69.90
2018-11-26T08:20:38.573Z,76.50
2018-11-26T08:21:38.573Z,71.60
2018-11-26T08:22:38.563Z,68.10
2018-11-26T08:23:38.570Z,68.80
2018-11-26T08:24:38.567Z,77.50
2018-11-26T08:25:38.580Z,74.90
2018-11-26T08:26:38.580Z,75.80
2018-11-26T08:27:38.582Z,81.70
2018-11-26T08:28:38.591Z,74.80
2018-11-26T08:29:38.605Z,73.50
2018-11-26T08:30:38.597Z,70.40
2018-11-26T08:31:38.639Z,78.40
2018-11-26T08:32:38.611Z,75.70
2018-11-26T08:33:38.610Z,73.90
2018-11-26T08:34:38.627Z,71.90
2018-11-26T08:35:38.612Z,75.10
2018-11-26T08:36:38.623Z,71.40
2018-11-26T08:37:38.628Z,76.10
2018-11-26T08:38:38.625Z,74.40
2018-11-26T08:39:38.647Z,80.00
2018-11-26T08:40:38.659Z,75.50
2018-11-26T08:41:38.652Z,74.50
2018-11-26T08:42:38.646Z,75.60
2018-11-26T08:43:38.654Z,72.50
2018-11-26T08:44:38.655Z,73.30
2018-11-26T08:45:38.663Z,74.50
2018-11-26T08:46:38.666Z,81.00
2018-11-26T08:47:38.663Z,73.30
2018-11-26T08:48:38.681Z,75.40
2018-11-26T08:49:38.677Z,75.00
2018-11-26T08:50:38.680Z,78.00
2018-11-26T08:51:38.679Z,78.50
2018-11-26T08:52:38.688Z,77.60
2018-11-26T08:53:38.688Z,79.50
2018-11-26T08:54:38.760Z,76.60
2018-11-26T08:55:38.705Z,70.40
2018-11-26T08:56:38.709Z,79.30
2018-11-26T08:57:38.724Z,71.10
2018-11-26T08:58:38.727Z,77.50
2018-11-26T08:59:38.717Z,71.60
2018-11-26T09:00:38.728Z,72.00
2018-11-26T09:01:39.087Z,77.40
2018-11-26T09:02:38.731Z,82.90
2018-11-26T09:03:38.739Z,85.30
2018-11-26T09:04:38.780Z,78.50
2018-11-26T09:05:38.744Z,70.70
2018-11-26T09:06:38.753Z,71.90
2018-11-26T09:07:38.754Z,73.30
2018-11-26T09:08:38.753Z,70.80
2018-11-26T09:09:38.757Z,71.50
2018-11-26T09:10:38.795Z,65.20
2018-11-26T09:11:38.768Z,75.50
2018-11-26T09:12:38.777Z,66.90
2018-11-26T09:13:38.777Z,72.30
2018-11-26T09:14:38.788Z,71.20
2018-11-26T09:15:38.786Z,72.80
2018-11-26T09:16:38.782Z,67.40
2018-11-26T09:17:38.803Z,70.60
2018-11-26T09:18:38.791Z,68.20
2018-11-26T09:19:38.801Z,70.90
2018-11-26T09:20:38.807Z,67.70
2018-11-26T09:21:38.809Z,67.40
2018-11-26T09:22:38.825Z,68.10
2018-11-26T09:23:38.812Z,69.50
2018-11-26T09:24:38.824Z,68.30
2018-11-26T09:25:38.827Z,67.30
2018-11-26T09:26:38.830Z,69.40
2018-11-26T09:27:38.845Z,70.70
2018-11-26T09:28:38.881Z,68.00
2018-11-26T09:29:38.851Z,69.80
2018-11-26T09:30:38.855Z,69.30
2018-11-26T09:31:38.857Z,65.10
2018-11-26T09:32:38.890Z,64.90
2018-11-26T09:33:38.877Z,64.20
2018-11-26T09:34:38.885Z,66.60
2018-11-26T09:35:38.893Z,64.40
2018-11-26T09:36:38.909Z,64.60
2018-11-26T09:37:38.915Z,75.00
2018-11-26T09:38:38.915Z,70.50
2018-11-26T09:39:38.896Z,74.30
2018-11-26T09:40:38.904Z,64.60
2018-11-26T09:41:40.104Z,67.30
2018-11-26T09:42:38.916Z,58.50
2018-11-26T09:43:38.923Z,66.30
2018-11-26T09:44:38.928Z,70.70
2018-11-26T09:45:40.449Z,70.30
2018-11-26T09:46:38.940Z,69.70
2018-11-26T09:47:38.939Z,69.10
2018-11-26T09:48:38.957Z,69.60
2018-11-26T09:49:39.160Z,71.80
2018-11-26T09:50:38.955Z,69.90
2018-11-26T09:51:42.131Z,67.50
2018-11-26T09:52:38.958Z,69.00
2018-11-26T09:53:38.968Z,72.10
2018-11-26T09:54:38.966Z,69.60
2018-11-26T09:55:38.971Z,65.30
2018-11-26T09:56:38.984Z,73.00
2018-11-26T09:57:38.991Z,69.90
2018-11-26T09:58:38.999Z,73.70
2018-11-26T09:59:38.983Z,70.00
2018-11-26T10:00:39.005Z,74.30
2018-11-26T10:01:38.992Z,65.30
2018-11-26T10:02:38.997Z,69.20
2018-11-26T10:03:39.001Z,67.30
2018-11-26T10:05:39.016Z,65.90
2018-11-26T10:06:39.020Z,66.90
2018-11-26T10:07:39.024Z,68.60
2018-11-26T10:08:39.033Z,61.30
2018-11-26T10:09:39.031Z,63.20
2018-11-26T10:10:39.058Z,64.70
2018-11-26T10:11:39.057Z,64.90
2018-11-26T10:12:39.047Z,67.00
2018-11-26T10:13:39.061Z,69.20
2018-11-26T10:14:39.066Z,68.30
2018-11-26T10:15:39.064Z,56.10
2018-11-26T10:16:39.074Z,65.20
2018-11-26T10:17:39.087Z,56.10
2018-11-26T10:18:39.080Z,59.50
2018-11-26T10:19:39.086Z,56.20
2018-11-26T10:20:39.093Z,59.10
2018-11-26T10:21:39.097Z,56.30
2018-11-26T10:22:39.100Z,57.60
2018-11-26T10:23:39.111Z,50.90
2018-11-26T10:24:39.110Z,60.20
2018-11-26T10:25:39.108Z,55.40
2018-11-26T10:26:39.115Z,56.70
2018-11-26T10:27:39.120Z,55.60
2018-11-26T10:28:39.128Z,56.50
2018-11-26T10:29:39.124Z,55.90
2018-11-26T10:30:39.151Z,61.30
2018-11-26T10:31:39.155Z,57.70
2018-11-26T10:32:39.156Z,53.50
2018-11-26T10:33:39.163Z,55.90
2018-11-26T10:34:39.155Z,53.80
2018-11-26T10:35:39.159Z,56.80
2018-11-26T10:36:39.171Z,56.70
2018-11-26T10:37:39.163Z,52.80
2018-11-26T10:38:39.175Z,51.90
2018-11-26T10:39:39.184Z,50.60
2018-11-26T10:40:39.192Z,49.50
2018-11-26T10:41:39.190Z,55.10
2018-11-26T10:43:39.201Z,50.30
2018-11-26T10:44:39.204Z,55.40
2018-11-26T10:45:39.213Z,52.70
2018-11-26T10:46:39.247Z,57.80
2018-11-26T10:47:39.216Z,54.00
2018-11-26T10:48:39.221Z,55.10
2018-11-26T10:49:39.232Z,52.00
2018-11-26T10:50:39.240Z,54.00
2018-11-26T10:52:39.248Z,59.90
2018-11-26T10:53:39.246Z,55.30
2018-11-26T10:54:39.259Z,52.30
2018-11-26T10:55:39.254Z,53.10
2018-11-26T10:56:39.261Z,56.80
2018-11-26T10:57:39.270Z,55.70
2018-11-26T10:58:39.307Z,54.30
2018-11-26T10:59:39.282Z,55.10
2018-11-26T11:01:39.289Z,52.20
2018-11-26T11:02:39.291Z,51.80
2018-11-26T11:03:39.305Z,59.00
2018-11-26T11:04:39.308Z,55.40
2018-11-26T11:05:39.319Z,52.00
2018-11-26T11:06:39.321Z,56.30
2018-11-26T11:07:39.336Z,60.50
2018-11-26T11:08:39.328Z,55.30
2018-11-26T11:09:39.326Z,56.10
2018-11-26T11:10:39.330Z,58.10
2018-11-26T11:11:39.338Z,59.00
2018-11-26T11:12:39.345Z,56.50
2018-11-26T11:13:40.613Z,57.50
2018-11-26T11:14:39.354Z,60.90
2018-11-26T11:15:39.356Z,51.90
2018-11-26T11:16:39.358Z,56.20
2018-11-26T11:17:39.367Z,56.20
2018-11-26T11:18:39.370Z,50.60
2018-11-26T11:19:39.617Z,49.60
2018-11-26T11:20:39.384Z,49.80
2018-11-26T11:21:39.402Z,51.50
2018-11-26T11:22:39.402Z,52.50
2018-11-26T11:23:39.397Z,51.90
2018-11-26T11:24:39.402Z,50.10
2018-11-26T11:25:39.406Z,52.40
2018-11-26T11:26:39.415Z,52.30
2018-11-26T11:27:39.415Z,56.00
2018-11-26T11:28:39.420Z,53.40
2018-11-26T11:29:39.431Z,55.90
2018-11-26T11:30:39.441Z,54.00
2018-11-26T11:31:39.431Z,56.00
2018-11-26T11:32:39.435Z,51.10
2018-11-26T11:33:39.447Z,55.10
2018-11-26T11:35:39.454Z,53.80
2018-11-26T11:36:39.472Z,55.20
2018-11-26T11:38:39.474Z,54.90
2018-11-26T11:39:39.478Z,51.80
2018-11-26T11:40:39.473Z,50.70
2018-11-26T11:41:39.479Z,52.60
2018-11-26T11:42:39.495Z,52.00
2018-11-26T11:43:39.511Z,52.00
2018-11-26T11:44:39.509Z,54.60
2018-11-26T11:45:39.505Z,56.80
2018-11-26T11:46:39.505Z,54.90
2018-11-26T11:47:39.514Z,50.30
2018-11-26T11:48:39.514Z,50.00
2018-11-26T11:49:39.521Z,55.20
2018-11-26T11:50:39.532Z,52.30
2018-11-26T11:51:39.540Z,53.70
2018-11-26T11:53:39.592Z,53.30
2018-11-26T11:54:39.550Z,51.20
2018-11-26T11:55:39.553Z,51.20
2018-11-26T11:56:39.562Z,47.80
2018-11-26T11:57:39.572Z,50.70
2018-11-26T11:58:39.563Z,53.80
2018-11-26T11:59:39.566Z,48.90
2018-11-26T12:00:39.573Z,57.20
2018-11-26T12:01:39.579Z,60.10
2018-11-26T12:02:39.588Z,47.70
2018-11-26T12:03:39.597Z,49.30
2018-11-26T12:05:39.602Z,48.50
2018-11-26T12:06:39.605Z,49.80
2018-11-26T12:07:39.610Z,47.40
2018-11-26T12:08:39.619Z,51.00
2018-11-26T12:09:39.624Z,50.20
2018-11-26T12:10:39.615Z,48.10
2018-11-26T12:11:39.633Z,50.90
2018-11-26T12:12:39.638Z,48.60
2018-11-26T12:13:39.635Z,50.90
2018-11-26T12:14:39.637Z,46.90
2018-11-26T12:15:39.652Z,45.60
2018-11-26T12:16:39.644Z,47.60
2018-11-26T12:17:39.663Z,46.00
2018-11-26T12:18:39.655Z,50.80
2018-11-26T12:19:39.664Z,45.00
2018-11-26T12:20:39.750Z,46.60
2018-11-26T12:21:39.672Z,46.30
2018-11-26T12:22:39.683Z,46.80
2018-11-26T12:23:39.674Z,45.90
2018-11-26T12:26:39.694Z,47.00
2018-11-26T12:27:39.694Z,44.20
2018-11-26T12:28:39.700Z,45.30
2018-11-26T12:29:39.707Z,46.90
2018-11-26T12:30:39.720Z,45.40
2018-11-26T12:31:39.724Z,47.40
2018-11-26T12:32:39.734Z,46.10
2018-11-26T12:33:39.720Z,44.90
2018-11-26T12:34:39.730Z,43.80
2018-11-26T12:35:39.745Z,46.00
2018-11-26T12:36:39.743Z,40.70
2018-11-26T12:37:39.736Z,43.80
2018-11-26T12:38:39.747Z,44.50
2018-11-26T12:39:39.750Z,47.30
2018-11-26T12:40:39.757Z,47.90
2018-11-26T12:41:39.757Z,44.10
2018-11-26T12:42:39.770Z,42.10
2018-11-26T12:43:39.767Z,45.10
2018-11-26T12:44:39.781Z,52.90
2018-11-26T12:45:39.791Z,47.20
2018-11-26T12:46:39.815Z,47.90
2018-11-26T12:47:39.800Z,47.00
2018-11-26T12:48:39.793Z,47.40
2018-11-26T12:49:39.797Z,46.60
2018-11-26T12:50:39.808Z,42.90
2018-11-26T12:51:39.816Z,46.60
2018-11-26T12:52:39.810Z,48.00
2018-11-26T12:53:39.815Z,44.90
2018-11-26T12:54:39.826Z,48.70
2018-11-26T12:55:39.838Z,42.30
2018-11-26T12:56:39.829Z,46.30
2018-11-26T12:57:39.831Z,43.50
2018-11-26T12:58:39.836Z,47.10
2018-11-26T12:59:39.831Z,49.00
2018-11-26T13:01:39.862Z,46.20
2018-11-26T13:03:39.870Z,44.00
2018-11-26T13:04:39.869Z,45.50
2018-11-26T13:05:39.865Z,40.90
2018-11-26T13:06:39.866Z,43.70
2018-11-26T13:07:39.875Z,46.50
2018-11-26T13:08:39.921Z,46.10
2018-11-26T13:09:39.889Z,48.30